Time;durP1;ratioP1;P1;durP2;ratioP2;P2;SDS_P1;SDS_P2;PMS_P1;PMS_P2;Temp;Humidity;BMP_temperature;BMP_pressure;BME280_temperature;BME280_humidity;BME280_pressure;Samples;Min_cycle;Max_cycle;Signal;HPM_P1;HPM_P2
2021/11/03 00:00:57;;;;;;;21.85;13.93;;;7.20;99.90;;;;;;4913582;29;20106;-65
2021/11/03 00:03:23;;;;;;;20.52;13.07;;;7.10;99.90;;;;;;4898138;29;20052;-63
2021/11/03 00:05:50;;;;;;;25.58;14.30;;;7.10;99.90;;;;;;4998967;28;20053;-53
2021/11/03 00:08:26;;;;;;;22.75;13.60;;;7.10;99.90;;;;;;5031157;28;20084;-63
2021/11/03 00:10:53;;;;;;;23.75;13.73;;;7.10;99.90;;;;;;5031762;28;20049;-63
2021/11/03 00:13:25;;;;;;;20.65;13.55;;;7.10;99.90;;;;;;5030552;28;20041;-65
2021/11/03 00:15:53;;;;;;;18.08;12.25;;;7.10;99.90;;;;;;5014118;28;20412;-54
2021/11/03 00:18:20;;;;;;;21.50;12.88;;;7.20;99.90;;;;;;5032188;28;20048;-64
2021/11/03 00:20:46;;;;;;;18.35;12.57;;;7.20;99.90;;;;;;5031894;28;20576;-55
2021/11/03 00:23:13;;;;;;;18.85;11.95;;;7.20;99.90;;;;;;5032527;28;20050;-63
2021/11/03 00:25:45;;;;;;;18.90;11.88;;;7.20;99.90;;;;;;5047116;28;20073;-63
2021/11/03 00:28:13;;;;;;;18.88;12.43;;;7.20;99.90;;;;;;5032598;28;20535;-54
2021/11/03 00:30:40;;;;;;;16.33;11.63;;;7.20;99.90;;;;;;5031031;28;20416;-53
2021/11/03 00:33:06;;;;;;;18.23;12.57;;;7.10;99.90;;;;;;5032424;28;20045;-55
2021/11/03 00:35:32;;;;;;;14.77;10.88;;;7.20;99.90;;;;;;5046421;28;20059;-54
2021/11/03 00:37:59;;;;;;;14.13;10.57;;;7.10;99.90;;;;;;5030992;28;20041;-54
2021/11/03 00:40:25;;;;;;;17.13;11.27;;;7.20;99.90;;;;;;5014249;28;20132;-54
2021/11/03 00:42:51;;;;;;;16.73;11.45;;;7.10;99.90;;;;;;5030402;28;20116;-64
2021/11/03 00:45:20;;;;;;;16.40;10.73;;;7.20;99.90;;;;;;5030969;28;20060;-64
2021/11/03 00:47:47;;;;;;;14.65;10.38;;;7.20;99.90;;;;;;5030811;28;20125;-64
2021/11/03 00:50:14;;;;;;;18.75;10.93;;;7.20;99.90;;;;;;5032100;28;20060;-64
2021/11/03 00:52:41;;;;;;;13.48;10.27;;;7.20;99.90;;;;;;5030540;28;20045;-64
2021/11/03 00:55:07;;;;;;;14.23;10.77;;;7.20;99.90;;;;;;5031020;28;20488;-54
2021/11/03 00:57:34;;;;;;;14.65;10.38;;;7.20;99.90;;;;;;5030051;28;20041;-54
2021/11/03 01:00:03;;;;;;;16.83;11.52;;;7.20;99.90;;;;;;5022643;28;20049;-55
2021/11/03 01:02:30;;;;;;;13.63;10.57;;;7.20;99.90;;;;;;5013899;28;20080;-55
2021/11/03 01:04:56;;;;;;;15.02;10.88;;;7.20;99.90;;;;;;5030624;28;20046;-64
2021/11/03 01:07:22;;;;;;;16.70;10.55;;;7.10;99.90;;;;;;5030151;28;20092;-64
2021/11/03 01:09:48;;;;;;;14.60;10.15;;;7.10;99.90;;;;;;5031661;28;20061;-63
2021/11/03 01:12:15;;;;;;;12.63;9.77;;;7.00;99.90;;;;;;4997736;28;20083;-64
2021/11/03 01:14:41;;;;;;;11.80;8.95;;;6.90;99.90;;;;;;5031412;28;20076;-64
2021/11/03 01:17:07;;;;;;;13.55;10.38;;;6.90;99.90;;;;;;5031837;28;20145;-64
2021/11/03 01:19:33;;;;;;;12.00;10.07;;;6.80;99.90;;;;;;5029388;28;20388;-64
2021/11/03 01:22:00;;;;;;;15.23;10.65;;;6.70;99.90;;;;;;5030896;28;20054;-54
2021/11/03 01:24:26;;;;;;;13.65;10.38;;;6.70;99.90;;;;;;5013387;28;20049;-55
2021/11/03 01:26:52;;;;;;;11.60;9.13;;;6.60;99.90;;;;;;5031487;28;20045;-54
2021/11/03 01:29:18;;;;;;;14.93;10.10;;;6.60;99.90;;;;;;5031269;28;20431;-55
2021/11/03 01:31:44;;;;;;;16.60;10.20;;;6.50;99.90;;;;;;5028949;28;20064;-53
2021/11/03 01:34:11;;;;;;;13.63;9.90;;;6.40;99.90;;;;;;5015181;28;20514;-54
2021/11/03 01:36:37;;;;;;;16.63;11.23;;;6.40;99.90;;;;;;5049721;28;20052;-54
2021/11/03 01:39:07;;;;;;;15.45;10.82;;;6.30;99.90;;;;;;5051305;28;20045;-52
2021/11/03 01:41:35;;;;;;;14.02;10.60;;;6.30;99.90;;;;;;5049102;28;20395;-55
2021/11/03 01:44:14;;;;;;;16.88;11.77;;;6.30;99.90;;;;;;5029250;28;20038;-53
2021/11/03 01:46:50;;;;;;;21.30;13.05;;;6.40;99.90;;;;;;5009258;28;20817;-54
2021/11/03 01:49:25;;;;;;;15.98;12.48;;;6.40;99.90;;;;;;5010624;28;20053;-63
2021/11/03 01:52:07;;;;;;;16.58;13.35;;;6.40;99.90;;;;;;4993149;28;20095;-64
2021/11/03 01:54:40;;;;;;;23.13;13.90;;;6.50;99.90;;;;;;5025436;28;20046;-53
2021/11/03 01:57:12;;;;;;;20.10;14.10;;;6.50;99.90;;;;;;5026119;28;20052;-54
2021/11/03 01:59:43;;;;;;;21.40;14.23;;;6.60;99.90;;;;;;5026259;28;20050;-52
2021/11/03 02:02:11;;;;;;;22.08;14.32;;;6.60;99.90;;;;;;5011738;28;20050;-51
2021/11/03 02:04:37;;;;;;;22.83;14.45;;;6.60;99.90;;;;;;5025562;28;20099;-54
2021/11/03 02:07:10;;;;;;;23.77;14.02;;;6.70;99.90;;;;;;5028851;28;20503;-63
2021/11/03 02:09:37;;;;;;;21.98;14.00;;;6.70;99.90;;;;;;5028857;28;20515;-63
2021/11/03 02:12:03;;;;;;;19.50;14.45;;;6.70;99.90;;;;;;5045626;28;20418;-53
2021/11/03 02:14:30;;;;;;;23.20;15.18;;;6.70;99.90;;;;;;5028737;28;20045;-54
2021/11/03 02:16:57;;;;;;;20.27;13.85;;;6.70;99.90;;;;;;5029016;28;20049;-55
2021/11/03 02:19:31;;;;;;;24.00;15.20;;;6.70;99.90;;;;;;5029273;28;20042;-55
2021/11/03 02:22:05;;;;;;;16.35;12.05;;;6.70;99.90;;;;;;5029194;28;20068;-53
2021/11/03 02:24:48;;;;;;;15.30;11.20;;;6.60;99.90;;;;;;5012671;28;20041;-54
2021/11/03 02:27:14;;;;;;;17.25;12.23;;;6.50;99.90;;;;;;5028181;28;20051;-54
2021/11/03 02:29:40;;;;;;;17.50;12.95;;;6.50;99.90;;;;;;5030207;28;20174;-64
2021/11/03 02:32:21;;;;;;;18.60;13.07;;;6.40;99.90;;;;;;5011978;28;20052;-64
2021/11/03 02:34:48;;;;;;;20.88;14.13;;;6.40;99.90;;;;;;5011411;28;20567;-64
2021/11/03 02:37:38;;;;;;;21.10;14.70;;;6.40;99.90;;;;;;5027952;28;20047;-64
2021/11/03 02:40:41;;;;;;;24.65;16.35;;;6.40;99.90;;;;;;5029115;28;20081;-64
2021/11/03 02:43:10;;;;;;;;;;;6.40;99.90;;;;;;4975792;28;20088;-63
2021/11/03 02:45:52;;;;;;;21.70;14.48;;;6.50;99.90;;;;;;5005802;28;19924;-64
2021/11/03 02:48:18;;;;;;;22.05;16.58;;;6.50;99.90;;;;;;4972076;28;20049;-64
2021/11/03 02:51:02;;;;;;;23.27;18.25;;;6.50;99.90;;;;;;4989201;28;20611;-64
2021/11/03 02:53:31;;;;;;;24.58;16.98;;;6.40;99.90;;;;;;4975115;28;20563;-64
2021/11/03 02:55:58;;;;;;;26.83;18.17;;;6.50;99.90;;;;;;5007802;28;20095;-55
2021/11/03 02:58:25;;;;;;;21.73;18.05;;;6.50;99.90;;;;;;4972138;28;20061;-56
2021/11/03 03:00:53;;;;;;;25.63;18.38;;;6.50;99.90;;;;;;4989533;28;20117;-54
2021/11/03 03:03:19;;;;;;;23.33;19.35;;;6.40;99.90;;;;;;4972079;28;20474;-65
2021/11/03 03:06:01;;;;;;;23.65;19.20;;;6.40;99.90;;;;;;4991362;28;20054;-51
2021/11/03 03:08:27;;;;;;;24.83;19.55;;;6.40;99.90;;;;;;4977065;28;20497;-62
2021/11/03 03:10:53;;;;;;;24.55;19.10;;;6.40;99.90;;;;;;4996318;28;20129;-63
2021/11/03 03:13:20;;;;;;;26.45;20.75;;;6.40;99.90;;;;;;4991516;28;20500;-63
2021/11/03 03:15:46;;;;;;;27.35;21.50;;;6.40;99.90;;;;;;4974928;28;20054;-63
2021/11/03 03:18:13;;;;;;;28.95;22.38;;;6.30;99.90;;;;;;4998717;28;20111;-63
2021/11/03 03:20:39;;;;;;;28.90;22.40;;;6.40;99.90;;;;;;5028621;28;20049;-63
2021/11/03 03:23:05;;;;;;;27.80;23.00;;;6.30;99.90;;;;;;5029914;28;20049;-63
2021/11/03 03:25:33;;;;;;;31.85;23.00;;;6.20;99.90;;;;;;5029989;28;20061;-63
2021/11/03 03:27:59;;;;;;;31.15;23.80;;;6.10;99.90;;;;;;5029590;28;20407;-63
2021/11/03 03:30:25;;;;;;;29.17;23.08;;;6.10;99.90;;;;;;5028583;28;20092;-64
2021/11/03 03:32:52;;;;;;;31.55;25.15;;;6.00;99.90;;;;;;5028317;28;20045;-64
2021/11/03 03:35:18;;;;;;;35.13;26.42;;;6.00;99.90;;;;;;5029923;28;20152;-64
2021/11/03 03:37:44;;;;;;;31.80;23.23;;;5.90;99.90;;;;;;5028746;28;20045;-64
2021/11/03 03:40:11;;;;;;;30.73;24.30;;;5.80;99.90;;;;;;5044937;28;20055;-56
2021/11/03 03:42:38;;;;;;;35.63;25.30;;;5.80;99.90;;;;;;5029438;28;20071;-55
2021/11/03 03:45:05;;;;;;;35.75;27.00;;;5.70;99.90;;;;;;5032346;28;20053;-55
2021/11/03 03:47:31;;;;;;;34.03;25.75;;;5.70;99.90;;;;;;5032284;28;20049;-56
2021/11/03 03:49:59;;;;;;;30.02;23.45;;;5.50;99.90;;;;;;5031225;28;20429;-55
2021/11/03 03:52:26;;;;;;;24.65;20.08;;;5.50;99.90;;;;;;5015054;28;20045;-56
2021/11/03 03:54:52;;;;;;;25.00;20.58;;;5.40;99.90;;;;;;4998270;28;20561;-54
2021/11/03 03:57:18;;;;;;;34.22;23.63;;;5.30;99.90;;;;;;5031755;28;20042;-56
2021/11/03 03:59:45;;;;;;;33.78;24.08;;;5.30;99.90;;;;;;5031335;28;20432;-64
2021/11/03 04:02:12;;;;;;;36.13;26.58;;;5.30;99.90;;;;;;5031521;28;20049;-64
2021/11/03 04:04:38;;;;;;;31.05;24.13;;;5.20;99.90;;;;;;5032123;28;20045;-56
2021/11/03 04:07:04;;;;;;;33.72;23.77;;;5.10;99.90;;;;;;5031896;28;20460;-54
2021/11/03 04:09:31;;;;;;;38.55;28.25;;;5.10;99.90;;;;;;5031602;28;20073;-64
2021/11/03 04:11:58;;;;;;;41.42;28.80;;;5.00;99.90;;;;;;5030729;28;20053;-64
2021/11/03 04:14:24;;;;;;;41.30;29.45;;;5.00;99.90;;;;;;5014581;28;20492;-54
2021/11/03 04:16:50;;;;;;;37.90;28.95;;;5.00;99.90;;;;;;5032430;28;20049;-53
2021/11/03 04:19:17;;;;;;;35.33;27.95;;;4.90;99.90;;;;;;5014664;28;20049;-64
2021/11/03 04:21:43;;;;;;;35.15;28.02;;;4.90;99.90;;;;;;5032206;28;20530;-64
2021/11/03 04:24:09;;;;;;;38.75;27.08;;;4.90;99.90;;;;;;5031088;28;20053;-64
2021/11/03 04:26:40;;;;;;;41.53;27.15;;;4.80;99.90;;;;;;5030780;28;20088;-64
2021/11/03 04:29:09;;;;;;;47.17;30.38;;;4.80;99.90;;;;;;5014788;28;20163;-54
2021/11/03 04:31:36;;;;;;;44.78;30.73;;;4.70;99.90;;;;;;5014391;28;20059;-54
2021/11/03 04:34:03;;;;;;;45.70;32.30;;;4.70;99.90;;;;;;5031570;28;20044;-53
2021/11/03 04:36:29;;;;;;;71.93;42.83;;;4.70;99.90;;;;;;5029961;28;20076;-55
2021/11/03 04:39:00;;;;;;;90.95;47.58;;;4.80;99.90;;;;;;4997853;28;20119;-64
2021/11/03 04:41:29;;;;;;;122.45;52.88;;;4.90;99.90;;;;;;5031013;28;20543;-64
2021/11/03 04:43:55;;;;;;;153.50;54.45;;;5.00;99.90;;;;;;5030375;28;20053;-64
2021/11/03 04:46:23;;;;;;;278.23;64.65;;;5.10;99.90;;;;;;5030655;28;20071;-64
2021/11/03 04:48:50;;;;;;;393.38;73.50;;;5.20;99.90;;;;;;5030807;28;20054;-53
2021/11/03 04:51:18;;;;;;;355.48;69.18;;;5.20;99.90;;;;;;5031149;28;20053;-53
2021/11/03 04:53:47;;;;;;;299.52;67.82;;;5.20;99.90;;;;;;5030424;28;20053;-54
2021/11/03 04:56:14;;;;;;;307.65;67.68;;;5.30;99.90;;;;;;5030882;28;20558;-54
2021/11/03 04:58:42;;;;;;;429.48;73.15;;;5.30;99.90;;;;;;5013913;28;20049;-55
2021/11/03 05:01:08;;;;;;;607.22;96.25;;;5.30;99.90;;;;;;5014289;28;20060;-54
2021/11/03 05:03:35;;;;;;;500.70;88.38;;;5.40;99.90;;;;;;5030716;28;20045;-55
2021/11/03 05:06:03;;;;;;;365.35;74.88;;;5.40;99.90;;;;;;5029875;28;20046;-64
2021/11/03 05:08:31;;;;;;;295.25;69.38;;;5.40;99.90;;;;;;5031631;28;20041;-53
2021/11/03 05:10:57;;;;;;;490.23;89.53;;;5.50;99.90;;;;;;5013996;28;20132;-53
2021/11/03 05:13:24;;;;;;;292.40;70.78;;;5.60;99.90;;;;;;5013979;28;20064;-54
2021/11/03 05:15:51;;;;;;;355.95;78.40;;;5.50;99.90;;;;;;5030188;28;20053;-53
2021/11/03 05:18:18;;;;;;;379.73;75.85;;;5.60;99.90;;;;;;5030356;28;20458;-64
2021/11/03 05:20:46;;;;;;;464.48;79.05;;;5.60;99.90;;;;;;5014055;28;20053;-55
2021/11/03 05:23:12;;;;;;;376.83;69.72;;;5.60;99.90;;;;;;5030400;28;20174;-56
2021/11/03 05:25:39;;;;;;;284.35;62.17;;;5.60;99.90;;;;;;5031516;28;20095;-55
2021/11/03 05:28:05;;;;;;;450.02;80.30;;;5.60;99.90;;;;;;5030023;28;20666;-54
2021/11/03 05:30:31;;;;;;;331.42;65.68;;;5.60;99.90;;;;;;5030864;28;20060;-55
2021/11/03 05:32:57;;;;;;;400.23;70.65;;;5.60;99.90;;;;;;5030173;28;20512;-55
2021/11/03 05:35:24;;;;;;;285.67;57.85;;;5.60;99.90;;;;;;5031176;28;20050;-53
2021/11/03 05:37:50;;;;;;;463.52;80.40;;;5.60;99.90;;;;;;5030802;28;20089;-64
2021/11/03 05:40:20;;;;;;;413.60;75.93;;;5.50;99.90;;;;;;5031347;28;20046;-64
2021/11/03 05:42:46;;;;;;;256.15;55.03;;;5.50;99.90;;;;;;5029595;28;20128;-64
2021/11/03 05:45:13;;;;;;;303.45;57.58;;;5.50;99.90;;;;;;5030986;28;20484;-64
2021/11/03 05:47:39;;;;;;;411.55;74.72;;;5.50;99.90;;;;;;5030662;28;20049;-64
2021/11/03 05:50:07;;;;;;;250.75;55.83;;;5.50;99.90;;;;;;5030874;28;20071;-64
2021/11/03 05:52:34;;;;;;;243.85;54.58;;;5.50;99.90;;;;;;5029415;28;20103;-64
2021/11/03 05:55:00;;;;;;;267.55;55.83;;;5.40;99.90;;;;;;5030731;28;20053;-54
2021/11/03 05:57:32;;;;;;;254.73;53.80;;;5.40;99.90;;;;;;5030583;28;20073;-54
2021/11/03 05:59:59;;;;;;;290.52;55.45;;;5.40;99.90;;;;;;5030197;28;20042;-55
2021/11/03 06:02:26;;;;;;;350.10;58.28;;;5.30;99.90;;;;;;5030067;28;20129;-55
2021/11/03 06:04:52;;;;;;;342.02;60.00;;;5.30;99.90;;;;;;5028840;28;20076;-53
2021/11/03 06:07:22;;;;;;;342.30;61.45;;;5.30;99.90;;;;;;5030231;28;20053;-64
2021/11/03 06:09:48;;;;;;;281.17;56.30;;;5.20;99.90;;;;;;5030368;28;20568;-64
2021/11/03 06:12:15;;;;;;;398.63;68.05;;;5.20;99.90;;;;;;5028884;28;20064;-64
2021/11/03 06:14:41;;;;;;;182.48;48.00;;;5.20;99.90;;;;;;5030129;28;20044;-64
2021/11/03 06:17:07;;;;;;;184.90;48.03;;;5.20;99.90;;;;;;5028741;28;20048;-64
2021/11/03 06:19:33;;;;;;;301.70;57.65;;;5.30;99.90;;;;;;5029235;28;20050;-64
2021/11/03 06:21:59;;;;;;;425.63;74.03;;;5.30;99.90;;;;;;5021103;28;20112;-64
2021/11/03 06:24:28;;;;;;;337.33;68.15;;;5.30;99.90;;;;;;5011107;28;20058;-65
2021/11/03 06:26:56;;;;;;;303.67;54.88;;;5.30;99.90;;;;;;5025272;28;20042;-65
2021/11/03 06:29:22;;;;;;;306.50;57.28;;;5.30;99.90;;;;;;5010431;28;20048;-64
2021/11/03 06:31:48;;;;;;;332.70;64.05;;;5.30;99.90;;;;;;5016483;28;20050;-54
2021/11/03 06:34:14;;;;;;;376.98;69.95;;;5.30;99.90;;;;;;5030215;28;20488;-53
2021/11/03 06:36:40;;;;;;;404.65;78.00;;;5.30;99.90;;;;;;5028890;28;20066;-55
2021/11/03 06:39:07;;;;;;;410.95;70.13;;;5.20;99.90;;;;;;5030331;28;20503;-64
2021/11/03 06:41:35;;;;;;;342.52;66.32;;;5.30;99.90;;;;;;5029043;28;20037;-65
2021/11/03 06:44:02;;;;;;;340.55;68.75;;;5.30;99.90;;;;;;5024881;28;20211;-61
2021/11/03 06:46:28;;;;;;;264.63;63.70;;;5.30;99.90;;;;;;5028488;28;20132;-65
2021/11/03 06:48:55;;;;;;;447.80;74.80;;;5.30;99.90;;;;;;5030752;28;20125;-53
2021/11/03 06:51:21;;;;;;;315.10;61.63;;;5.30;99.90;;;;;;5030571;28;20057;-55
2021/11/03 06:53:47;;;;;;;221.55;55.25;;;5.30;99.90;;;;;;5028789;28;20120;-54
2021/11/03 06:56:13;;;;;;;319.52;65.65;;;5.30;99.90;;;;;;5027645;28;20060;-65
2021/11/03 06:58:39;;;;;;;275.55;57.90;;;5.30;99.90;;;;;;5030484;28;20434;-64
2021/11/03 07:01:08;;;;;;;318.50;58.15;;;5.30;99.90;;;;;;5028619;28;20124;-64
2021/11/03 07:03:36;;;;;;;388.98;66.60;;;5.30;99.90;;;;;;5045180;28;20046;-64
2021/11/03 07:06:02;;;;;;;255.55;54.20;;;5.20;99.90;;;;;;5028366;28;20058;-64
2021/11/03 07:08:29;;;;;;;441.25;70.28;;;5.30;99.90;;;;;;5029786;28;20060;-65
2021/11/03 07:10:57;;;;;;;256.75;53.10;;;5.20;99.90;;;;;;5030243;28;20046;-52
2021/11/03 07:13:24;;;;;;;295.55;54.67;;;5.20;99.90;;;;;;5030092;28;20064;-65
2021/11/03 07:15:51;;;;;;;276.40;51.28;;;5.20;99.90;;;;;;5023075;28;20050;-65
2021/11/03 07:18:18;;;;;;;183.77;46.60;;;5.20;99.90;;;;;;5013834;28;20511;-65
2021/11/03 07:20:45;;;;;;;310.05;59.30;;;5.20;99.90;;;;;;5012887;28;20050;-63
2021/11/03 07:23:14;;;;;;;291.13;58.08;;;5.20;99.90;;;;;;5039054;28;20045;-63
2021/11/03 07:25:41;;;;;;;236.73;51.25;;;5.30;99.90;;;;;;5029311;28;20049;-63
2021/11/03 07:28:07;;;;;;;350.13;65.78;;;5.20;99.90;;;;;;5027082;28;20046;-65
2021/11/03 07:30:36;;;;;;;324.73;61.70;;;5.20;99.90;;;;;;5033126;28;20060;-64
2021/11/03 07:33:02;;;;;;;257.77;51.50;;;5.20;99.90;;;;;;5031458;28;20122;-65
2021/11/03 07:35:28;;;;;;;241.38;54.03;;;5.30;99.90;;;;;;5030151;28;20431;-51
2021/11/03 07:37:56;;;;;;;385.88;67.68;;;5.30;99.90;;;;;;5013089;28;20409;-64
2021/11/03 07:40:27;;;;;;;325.80;62.38;;;5.30;99.90;;;;;;5021789;28;20049;-64
2021/11/03 07:42:57;;;;;;;317.48;63.70;;;5.30;99.90;;;;;;4995436;28;20042;-65
2021/11/03 07:45:25;;;;;;;341.13;66.68;;;5.30;99.90;;;;;;5038501;28;20539;-64
2021/11/03 07:47:52;;;;;;;326.15;64.30;;;5.30;99.90;;;;;;5030434;28;20080;-63
2021/11/03 07:50:22;;;;;;;246.55;58.67;;;5.30;99.90;;;;;;5048049;28;20042;-63
2021/11/03 07:52:48;;;;;;;171.82;49.88;;;5.30;99.90;;;;;;5029724;28;20038;-62
2021/11/03 07:55:15;;;;;;;180.75;49.03;;;5.40;99.90;;;;;;5025789;28;20046;-64
2021/11/03 07:57:41;;;;;;;160.07;45.28;;;5.40;99.90;;;;;;5032965;28;20055;-61
2021/11/03 08:00:16;;;;;;;190.80;47.25;;;5.60;99.90;;;;;;5031551;28;20037;-63
2021/11/03 08:02:42;;;;;;;210.23;49.30;;;5.60;99.90;;;;;;5032812;28;20044;-63
2021/11/03 08:05:08;;;;;;;318.17;59.15;;;5.60;99.90;;;;;;5048438;28;20045;-63
2021/11/03 08:07:34;;;;;;;281.40;60.60;;;5.60;99.90;;;;;;5032475;28;20053;-63
2021/11/03 08:10:01;;;;;;;147.30;44.67;;;5.60;99.90;;;;;;5029880;28;20045;-64
2021/11/03 08:12:27;;;;;;;258.50;56.08;;;5.70;99.90;;;;;;5032227;28;20049;-64
2021/11/03 08:14:53;;;;;;;167.45;50.47;;;5.70;99.90;;;;;;5025474;28;20041;-63
2021/11/03 08:17:22;;;;;;;207.35;57.50;;;5.80;99.90;;;;;;5013343;28;20120;-64
2021/11/03 08:19:53;;;;;;;327.98;65.45;;;5.90;99.90;;;;;;5031169;28;20455;-64
2021/11/03 08:22:24;;;;;;;134.15;45.70;;;5.90;99.90;;;;;;5030838;28;20077;-65
2021/11/03 08:24:52;;;;;;;201.45;55.15;;;6.00;99.90;;;;;;5030843;28;20454;-64
2021/11/03 08:27:19;;;;;;;242.90;53.47;;;6.00;99.90;;;;;;5046738;28;20045;-64
2021/11/03 08:29:46;;;;;;;222.32;53.15;;;6.10;99.90;;;;;;5030073;28;20443;-64
2021/11/03 08:32:16;;;;;;;164.00;49.78;;;6.20;99.90;;;;;;5030456;28;20128;-64
2021/11/03 08:34:43;;;;;;;182.18;51.58;;;6.20;99.90;;;;;;5032776;28;20531;-63
2021/11/03 08:37:14;;;;;;;197.13;56.08;;;6.20;99.90;;;;;;5031916;28;20261;-63
2021/11/03 08:39:42;;;;;;;80.20;41.30;;;6.30;99.90;;;;;;5031017;28;20042;-63
2021/11/03 08:42:09;;;;;;;227.32;54.53;;;6.40;99.90;;;;;;5031798;28;20050;-52
2021/11/03 08:44:38;;;;;;;138.63;42.78;;;6.40;99.90;;;;;;5045685;28;20496;-52
2021/11/03 08:47:04;;;;;;;151.27;41.47;;;6.40;99.90;;;;;;5031545;28;20088;-53
2021/11/03 08:49:32;;;;;;;161.70;42.08;;;6.30;99.90;;;;;;5030869;28;20530;-48
2021/11/03 08:51:58;;;;;;;146.40;43.60;;;6.30;99.90;;;;;;5031202;28;20099;-52
2021/11/03 08:54:24;;;;;;;135.90;42.88;;;6.30;99.90;;;;;;5031476;28;20053;-49
2021/11/03 08:56:50;;;;;;;84.95;37.08;;;6.30;99.90;;;;;;5029855;28;20411;-49
2021/11/03 08:59:17;;;;;;;94.85;36.80;;;6.30;99.90;;;;;;5032003;28;20367;-53
2021/11/03 09:01:44;;;;;;;132.50;35.90;;;6.30;99.90;;;;;;5030161;28;20455;-49
2021/11/03 09:04:10;;;;;;;104.05;36.63;;;6.30;99.90;;;;;;5030663;28;20041;-53
2021/11/03 09:06:38;;;;;;;84.57;37.10;;;6.40;99.90;;;;;;5030328;28;20057;-53
2021/11/03 09:09:05;;;;;;;332.90;55.47;;;6.50;99.90;;;;;;5031464;28;20049;-51
2021/11/03 09:11:32;;;;;;;235.93;48.85;;;6.40;99.90;;;;;;5031713;28;20340;-51
2021/11/03 09:13:59;;;;;;;224.88;50.03;;;6.40;99.90;;;;;;5030658;28;20068;-49
2021/11/03 09:16:27;;;;;;;213.45;54.00;;;6.40;99.90;;;;;;5029027;28;20057;-50
2021/11/03 09:18:53;;;;;;;83.70;36.80;;;6.50;99.90;;;;;;5031395;28;20072;-49
2021/11/03 09:21:21;;;;;;;86.70;34.03;;;6.60;99.90;;;;;;5046137;28;20044;-51
2021/11/03 09:23:48;;;;;;;89.88;36.45;;;6.60;99.90;;;;;;5030658;28;20420;-51
2021/11/03 09:26:17;;;;;;;154.27;38.83;;;6.70;99.90;;;;;;5029719;28;20049;-47
2021/11/03 09:28:44;;;;;;;294.00;55.35;;;6.80;99.90;;;;;;5027439;28;20515;-50
2021/11/03 09:31:12;;;;;;;114.25;37.47;;;6.80;99.90;;;;;;5031302;28;20053;-51
2021/11/03 09:33:39;;;;;;;153.48;39.58;;;6.80;99.90;;;;;;5031610;28;20494;-47
2021/11/03 09:36:10;;;;;;;90.45;52.20;;;6.80;99.90;;;;;;5022517;28;20397;-55
2021/11/03 09:38:37;;;;;;;150.32;40.55;;;6.90;99.90;;;;;;5001802;28;20136;-50
2021/11/03 09:41:09;;;;;;;161.82;44.20;;;6.80;99.90;;;;;;5029762;28;20056;-47
2021/11/03 09:44:09;;;;;;;87.60;35.37;;;6.80;99.90;;;;;;5045680;28;20400;-45
2021/11/03 09:46:42;;;;;;;84.47;35.42;;;6.80;99.90;;;;;;5030745;28;20052;-61
2021/11/03 09:49:18;;;;;;;135.05;39.95;;;6.90;99.90;;;;;;5030187;28;20045;-48
2021/11/03 09:51:48;;;;;;;185.05;42.20;;;6.80;99.90;;;;;;5029625;28;20041;-64
2021/11/03 09:54:27;;;;;;;92.50;35.65;;;6.70;99.90;;;;;;5030360;28;20425;-60
2021/11/03 09:57:14;;;;;;;131.25;42.08;;;6.60;99.90;;;;;;5030411;28;20512;-48
2021/11/03 09:59:52;;;;;;;110.63;37.05;;;6.70;99.90;;;;;;5029369;28;20107;-64
2021/11/03 10:02:51;;;;;;;89.82;36.15;;;6.80;99.90;;;;;;5028563;28;20069;-63
2021/11/03 10:05:20;;;;;;;107.22;31.27;;;6.80;99.90;;;;;;5026864;28;20183;-63
2021/11/03 10:08:00;;;;;;;176.07;41.70;;;6.70;99.90;;;;;;5028601;28;20515;-63
2021/11/03 10:10:34;;;;;;;63.40;32.25;;;6.70;99.90;;;;;;5028429;28;20176;-62
2021/11/03 10:13:03;;;;;;;56.95;27.92;;;6.80;99.90;;;;;;5043243;28;20650;-62
2021/11/03 10:15:31;;;;;;;53.45;29.73;;;6.90;99.90;;;;;;5024225;28;20579;-62
2021/11/03 10:18:09;;;;;;;61.20;29.48;;;7.00;99.90;;;;;;5029827;28;20037;-61
2021/11/03 10:20:41;;;;;;;80.07;33.03;;;7.00;99.90;;;;;;5029103;28;20084;-63
2021/11/03 10:23:15;;;;;;;67.13;30.30;;;7.00;99.90;;;;;;5029369;28;20124;-62
2021/11/03 10:25:47;;;;;;;59.78;29.77;;;7.10;99.90;;;;;;5028912;28;20057;-49
2021/11/03 10:28:28;;;;;;;;;;;7.00;99.90;;;;;;5029032;28;20083;-47
2021/11/03 10:30:54;;;;;;;58.10;30.15;;;7.00;99.90;;;;;;5014170;28;19939;-49
2021/11/03 10:33:32;;;;;;;52.72;26.23;;;7.00;99.90;;;;;;5019826;28;20052;-48
2021/11/03 10:36:00;;;;;;;52.75;26.85;;;7.10;99.90;;;;;;5028925;28;20115;-62
2021/11/03 10:38:27;;;;;;;55.40;29.40;;;7.10;99.90;;;;;;5028871;28;20091;-61
2021/11/03 10:41:00;;;;;;;105.10;30.95;;;7.20;99.90;;;;;;5029928;28;20479;-62
2021/11/03 10:43:31;;;;;;;90.20;31.23;;;7.20;99.90;;;;;;5030015;28;20076;-62
2021/11/03 10:46:23;;;;;;;50.57;27.33;;;7.10;99.90;;;;;;5028963;28;20440;-62
2021/11/03 10:48:55;;;;;;;46.47;25.08;;;7.10;99.90;;;;;;5028742;28;20464;-62
2021/11/03 10:51:33;;;;;;;62.28;30.00;;;7.10;99.90;;;;;;5013777;28;20111;-62
2021/11/03 10:54:12;;;;;;;58.00;28.15;;;7.20;99.90;;;;;;5013333;28;20049;-62
2021/11/03 10:56:56;;;;;;;100.10;32.67;;;7.10;99.90;;;;;;5034107;28;20049;-50
2021/11/03 10:59:31;;;;;;;62.75;31.00;;;7.10;99.90;;;;;;5015186;28;20045;-50
2021/11/03 11:02:22;;;;;;;72.30;33.50;;;7.10;99.90;;;;;;5033746;28;20076;-51
2021/11/03 11:04:49;;;;;;;58.53;34.08;;;7.30;99.90;;;;;;5033755;28;20440;-49
2021/11/03 11:07:24;;;;;;;61.03;28.50;;;7.30;99.90;;;;;;5032657;28;20049;-49
2021/11/03 11:09:58;;;;;;;52.13;29.08;;;7.40;99.90;;;;;;5031478;28;20578;-49
2021/11/03 11:12:31;;;;;;;66.43;31.77;;;7.30;99.90;;;;;;5032606;28;20447;-47
2021/11/03 11:15:24;;;;;;;79.40;30.77;;;7.30;99.90;;;;;;5033365;28;20167;-51
2021/11/03 11:18:26;;;;;;;74.95;32.65;;;7.40;99.90;;;;;;5032173;28;20042;-49
2021/11/03 11:20:54;;;;;;;;;;;7.30;99.90;;;;;;4978270;28;20038;-51
2021/11/03 11:23:33;;;;;;;47.83;29.55;;;7.30;99.90;;;;;;4993498;28;20376;-52
2021/11/03 11:26:15;;;;;;;36.08;27.45;;;7.30;99.90;;;;;;4975423;28;20133;-51
2021/11/03 11:29:07;;;;;;;33.85;26.17;;;7.40;99.90;;;;;;4991574;28;20054;-49
2021/11/03 11:31:33;;;;;;;32.42;24.85;;;7.40;99.90;;;;;;4991251;28;20058;-48
2021/11/03 11:34:07;;;;;;;26.83;23.33;;;7.40;99.90;;;;;;4991272;28;20082;-52
2021/11/03 11:36:43;;;;;;;41.72;24.00;;;7.40;99.90;;;;;;4990899;28;20201;-48
2021/11/03 11:39:15;;;;;;;29.58;22.92;;;7.40;99.90;;;;;;4991060;28;20429;-61
2021/11/03 11:41:44;;;;;;;;;;;7.40;99.90;;;;;;4992522;28;20564;-61
2021/11/03 11:44:20;;;;;;;45.13;26.58;;;7.30;99.90;;;;;;4974787;28;20446;-48
2021/11/03 11:46:48;;;;;;;37.08;28.52;;;7.20;99.90;;;;;;4991087;28;20476;-51
2021/11/03 11:49:19;;;;;;;53.47;29.35;;;7.20;99.90;;;;;;4990811;28;20130;-62
2021/11/03 11:51:52;;;;;;;57.10;30.73;;;7.30;99.90;;;;;;4998200;28;20046;-62
2021/11/03 11:54:27;;;;;;;57.53;30.75;;;7.30;99.90;;;;;;4994448;28;20046;-49
2021/11/03 11:57:11;;;;;;;46.72;31.10;;;7.30;99.90;;;;;;5007960;28;20698;-51
2021/11/03 11:59:59;;;;;;;45.53;29.63;;;7.40;99.90;;;;;;5011684;28;20041;-49
2021/11/03 12:02:28;;;;;;;52.90;29.42;;;7.40;99.90;;;;;;5021215;28;20136;-52
2021/11/03 12:05:19;;;;;;;41.40;29.65;;;7.40;99.90;;;;;;5029907;28;20037;-50
2021/11/03 12:08:04;;;;;;;45.47;29.27;;;7.40;99.90;;;;;;4998472;28;20049;-50
2021/11/03 12:10:32;;;;;;;52.80;31.40;;;7.40;99.90;;;;;;5031264;28;20112;-52
2021/11/03 12:13:16;;;;;;;71.20;31.73;;;7.40;99.90;;;;;;5014008;28;20037;-52
2021/11/03 12:15:50;;;;;;;41.95;26.67;;;7.30;99.90;;;;;;5012939;28;20540;-50
2021/11/03 12:18:28;;;;;;;49.13;29.52;;;7.40;99.90;;;;;;5021377;28;20042;-51
2021/11/03 12:21:03;;;;;;;56.10;27.92;;;7.30;99.90;;;;;;5014874;28;20497;-50
2021/11/03 12:23:48;;;;;;;53.50;30.60;;;7.40;99.90;;;;;;5032505;28;20047;-52
2021/11/03 12:26:29;;;;;;;52.88;29.00;;;7.30;99.90;;;;;;5030143;28;20547;-49
2021/11/03 12:29:03;;;;;;;63.33;30.92;;;7.40;99.90;;;;;;5009362;28;20111;-47
2021/11/03 12:31:48;;;;;;;54.47;30.27;;;7.40;99.90;;;;;;5027582;28;20419;-47
2021/11/03 12:34:14;;;;;;;48.70;29.25;;;7.50;99.90;;;;;;5030961;28;20120;-52
2021/11/03 12:36:49;;;;;;;51.40;27.45;;;7.60;99.90;;;;;;5031535;28;20243;-51
2021/11/03 12:39:33;;;;;;;35.08;26.08;;;7.60;99.90;;;;;;5013005;28;20052;-50
2021/11/03 12:42:22;;;;;;;27.02;24.05;;;7.70;99.90;;;;;;5046895;28;20060;-51
2021/11/03 12:45:11;;;;;;;31.40;25.88;;;7.70;99.90;;;;;;4990347;28;20095;-48
2021/11/03 12:47:57;;;;;;;32.10;25.85;;;7.80;99.90;;;;;;4975275;28;20515;-49